createdAt,value
2018-07-01T00:00:54.517Z,94523.22
2018-07-01T00:03:23.687Z,94519.22
2018-07-01T00:05:52.429Z,94527.19
2018-07-01T00:08:21.206Z,94528.80
2018-07-01T00:10:49.992Z,94528.81
2018-07-01T00:13:18.979Z,94527.76
2018-07-01T00:15:47.706Z,94523.52
2018-07-01T00:18:16.382Z,94526.44
2018-07-01T00:20:45.115Z,94520.59
2018-07-01T00:23:13.813Z,94528.82
2018-07-01T00:25:42.517Z,94535.47
2018-07-01T00:28:11.638Z,94533.10
2018-07-01T00:30:40.393Z,94539.77
2018-07-01T00:33:09.117Z,94535.25
2018-07-01T00:35:38.247Z,94535.49
2018-07-01T00:38:07.053Z,94534.71
2018-07-01T00:40:35.830Z,94538.71
2018-07-01T00:43:04.652Z,94541.89
2018-07-01T00:45:39.761Z,94541.88
2018-07-01T00:48:08.970Z,94541.32
2018-07-01T00:50:37.773Z,94541.05
2018-07-01T00:53:06.538Z,94526.12
2018-07-01T00:55:35.249Z,94535.98
2018-07-01T00:58:04.091Z,94538.11
2018-07-01T01:00:34.766Z,94548.72
2018-07-01T01:03:04.337Z,94542.30
2018-07-01T01:05:33.777Z,94550.23
2018-07-01T01:08:02.529Z,94550.22
2018-07-01T01:10:31.271Z,94559.50
2018-07-01T01:13:00.315Z,94555.46
2018-07-01T01:15:29.042Z,94553.08
2018-07-01T01:17:57.810Z,94563.16
2018-07-01T01:20:26.629Z,94572.16
2018-07-01T01:22:55.416Z,94569.72
2018-07-01T01:25:24.171Z,94571.53
2018-07-01T01:27:52.851Z,94572.31
2018-07-01T01:30:21.979Z,94569.84
2018-07-01T01:32:50.723Z,94579.86
2018-07-01T01:35:19.518Z,94580.58
2018-07-01T01:37:48.353Z,94585.76
2018-07-01T01:40:19.691Z,94600.25
2018-07-01T01:42:54.379Z,94585.00
2018-07-01T01:45:29.513Z,94603.78
2018-07-01T01:48:02.670Z,94609.33
2018-07-01T01:51:09.358Z,94619.66
2018-07-01T01:53:56.674Z,94629.86
2018-07-01T01:56:39.560Z,94631.67
2018-07-01T01:59:16.583Z,94631.62
2018-07-01T02:01:51.618Z,94637.94
2018-07-01T02:04:38.815Z,94640.47
2018-07-01T02:07:12.115Z,94643.06
2018-07-01T02:09:40.934Z,94649.33
2018-07-01T02:12:11.959Z,94646.68
2018-07-01T02:14:44.680Z,94649.33
2018-07-01T02:17:17.942Z,94652.97
2018-07-01T02:19:47.178Z,94651.28
2018-07-01T02:22:18.809Z,94653.11
2018-07-01T02:24:49.322Z,94652.35
2018-07-01T02:27:18.151Z,94659.70
2018-07-01T02:29:46.940Z,94656.20
2018-07-01T02:32:15.720Z,94658.75
2018-07-01T02:34:44.484Z,94660.30
2018-07-01T02:37:13.190Z,94662.44
2018-07-01T02:39:42.278Z,94661.58
2018-07-01T02:42:11.095Z,94666.55
2018-07-01T02:44:39.790Z,94671.55
2018-07-01T02:47:08.923Z,94675.30
2018-07-01T02:49:37.639Z,94680.58
2018-07-01T02:52:06.429Z,94685.07
2018-07-01T02:54:35.178Z,94692.92
2018-07-01T02:57:03.875Z,94694.98
2018-07-01T02:59:32.643Z,94699.61
2018-07-01T03:02:01.446Z,94708.62
2018-07-01T03:04:30.172Z,94713.83
2018-07-01T03:06:58.958Z,94705.13
2018-07-01T03:09:27.782Z,94713.36
2018-07-01T03:11:56.522Z,94715.09
2018-07-01T03:14:25.297Z,94722.05
2018-07-01T03:16:54.017Z,94715.44
2018-07-01T03:19:22.761Z,94724.94
2018-07-01T03:21:51.469Z,94726.49
2018-07-01T03:24:20.176Z,94727.81
2018-07-01T03:26:48.875Z,94731.39
2018-07-01T03:29:17.659Z,94740.48
2018-07-01T03:31:46.386Z,94747.15
2018-07-01T03:34:15.070Z,94745.54
2018-07-01T03:36:43.825Z,94750.73
2018-07-01T03:39:12.647Z,94751.25
2018-07-01T03:41:41.394Z,94754.98
2018-07-01T03:44:10.155Z,94756.70
2018-07-01T03:46:38.979Z,94758.78
2018-07-01T03:49:07.982Z,94760.91
2018-07-01T03:51:36.794Z,94769.84
2018-07-01T03:54:05.986Z,94774.15
2018-07-01T03:56:34.954Z,94775.77
2018-07-01T03:59:03.723Z,94773.11
2018-07-01T04:01:32.515Z,94785.63
2018-07-01T04:04:01.260Z,94784.81
2018-07-01T04:06:30.007Z,94782.09
2018-07-01T04:08:58.781Z,94788.27
2018-07-01T04:11:27.534Z,94785.67
2018-07-01T04:13:56.290Z,94785.10
2018-07-01T04:16:25.051Z,94783.08
2018-07-01T04:18:53.826Z,94782.34
2018-07-01T04:21:22.550Z,94783.95
2018-07-01T04:23:51.306Z,94787.64
2018-07-01T04:26:20.063Z,94792.94
2018-07-01T04:28:48.858Z,94784.42
2018-07-01T04:31:17.960Z,94781.06
2018-07-01T04:33:47.102Z,94782.67
2018-07-01T04:36:15.878Z,94787.76
2018-07-01T04:38:44.573Z,94786.72
2018-07-01T04:41:13.310Z,94791.85
2018-07-01T04:43:42.082Z,94796.16
2018-07-01T04:46:10.798Z,94796.26
2018-07-01T04:48:39.538Z,94803.68
2018-07-01T04:51:08.388Z,94809.53
2018-07-01T04:53:37.122Z,94810.30
2018-07-01T04:56:05.946Z,94811.55
2018-07-01T04:58:34.778Z,94818.25
2018-07-01T05:01:03.900Z,94822.20
2018-07-01T05:03:32.630Z,94823.70
2018-07-01T05:06:01.318Z,94827.45
2018-07-01T05:08:30.075Z,94826.88
2018-07-01T05:10:58.870Z,94837.47
2018-07-01T05:13:27.663Z,94830.80
2018-07-01T05:15:56.951Z,94841.51
2018-07-01T05:18:25.650Z,94829.69
2018-07-01T05:20:54.393Z,94835.17
2018-07-01T05:23:23.120Z,94846.35
2018-07-01T05:25:51.885Z,94846.84
2018-07-01T05:28:20.594Z,94840.69
2018-07-01T05:30:49.379Z,94846.24
2018-07-01T05:33:18.479Z,94842.34
2018-07-01T05:35:47.299Z,94851.80
2018-07-01T05:38:16.114Z,94851.22
2018-07-01T05:40:44.886Z,94854.85
2018-07-01T05:43:13.712Z,94855.48
2018-07-01T05:45:42.816Z,94859.86
2018-07-01T05:48:11.585Z,94869.42
2018-07-01T05:50:40.313Z,94858.94
2018-07-01T05:53:09.035Z,94853.98
2018-07-01T05:55:37.814Z,94865.66
2018-07-01T05:58:06.922Z,94874.20
2018-07-01T06:00:35.874Z,94869.06
2018-07-01T06:03:05.067Z,94850.39
2018-07-01T06:05:33.770Z,94857.58
2018-07-01T06:08:02.663Z,94865.86
2018-07-01T06:10:31.409Z,94876.80
2018-07-01T06:13:00.218Z,94881.04
2018-07-01T06:15:28.970Z,94857.41
2018-07-01T06:17:57.690Z,94871.41
2018-07-01T06:20:26.431Z,94873.20
2018-07-01T06:22:55.245Z,94900.55
2018-07-01T06:25:24.194Z,94884.64
2018-07-01T06:27:52.969Z,94882.29
2018-07-01T06:30:21.862Z,94875.02
2018-07-01T06:32:50.598Z,94872.55
2018-07-01T06:35:19.937Z,94869.95
2018-07-01T06:37:48.710Z,94877.23
2018-07-01T06:40:17.441Z,94884.05
2018-07-01T06:42:46.274Z,94877.75
2018-07-01T06:45:15.008Z,94877.89
2018-07-01T06:47:43.812Z,94895.77
2018-07-01T06:50:12.954Z,94881.70
2018-07-01T06:52:41.686Z,94892.46
2018-07-01T06:55:10.463Z,94886.42
2018-07-01T06:57:39.207Z,94873.70
2018-07-01T07:00:08.088Z,94877.69
2018-07-01T07:02:37.238Z,94883.84
2018-07-01T07:05:06.100Z,94884.45
2018-07-01T07:07:34.934Z,94876.61
2018-07-01T07:10:03.790Z,94884.33
2018-07-01T07:12:33.292Z,94865.86
2018-07-01T07:15:02.079Z,94870.48
2018-07-01T07:17:30.838Z,94879.42
2018-07-01T07:19:59.624Z,94874.95
2018-07-01T07:22:28.395Z,94881.56
2018-07-01T07:24:57.106Z,94878.22
2018-07-01T07:27:25.885Z,94882.80
2018-07-01T07:29:54.587Z,94871.70
2018-07-01T07:32:23.281Z,94882.40
2018-07-01T07:34:52.021Z,94891.70
2018-07-01T07:37:20.794Z,94877.92
2018-07-01T07:39:49.516Z,94873.91
2018-07-01T07:42:18.264Z,94871.87
2018-07-01T07:44:47.011Z,94877.02
2018-07-01T07:47:15.962Z,94874.88
2018-07-01T07:49:44.812Z,94883.14
2018-07-01T07:52:13.589Z,94876.84
2018-07-01T07:54:42.604Z,94872.19
2018-07-01T07:57:11.353Z,94877.66
2018-07-01T07:59:40.073Z,94869.89
2018-07-01T08:02:09.131Z,94877.47
2018-07-01T08:04:37.945Z,94875.80
2018-07-01T08:07:06.879Z,94890.42
2018-07-01T08:09:35.679Z,94883.62
2018-07-01T08:12:04.563Z,94886.91
2018-07-01T08:14:33.284Z,94875.22
2018-07-01T08:17:02.069Z,94889.34
2018-07-01T08:19:31.499Z,94870.81
2018-07-01T08:22:00.298Z,94868.77
2018-07-01T08:24:29.054Z,94881.07
2018-07-01T08:26:57.804Z,94879.06
2018-07-01T08:29:26.505Z,94895.58
2018-07-01T08:31:55.263Z,94885.48
2018-07-01T08:34:23.958Z,94874.81
2018-07-01T08:36:53.077Z,94875.69
2018-07-01T08:39:21.837Z,94901.02
2018-07-01T08:42:04.145Z,94875.92
2018-07-01T08:44:32.889Z,94875.21
2018-07-01T08:47:01.666Z,94874.46
2018-07-01T08:49:30.403Z,94872.67
2018-07-01T08:51:59.886Z,94874.59
2018-07-01T08:54:28.662Z,94880.98
2018-07-01T08:56:57.426Z,94871.67
2018-07-01T08:59:26.194Z,94875.73
2018-07-01T09:01:54.953Z,94877.05
2018-07-01T09:04:23.756Z,94875.45
2018-07-01T09:06:52.492Z,94871.72
2018-07-01T09:09:21.624Z,94871.80
2018-07-01T09:11:50.435Z,94876.35
2018-07-01T09:14:19.309Z,94878.74
2018-07-01T09:16:48.090Z,94871.02
2018-07-01T09:19:17.013Z,94882.23
2018-07-01T09:21:45.796Z,94876.90
2018-07-01T09:24:14.579Z,94867.80
2018-07-01T09:26:43.446Z,94863.59
2018-07-01T09:29:12.470Z,94875.63
2018-07-01T09:31:41.198Z,94869.02
2018-07-01T09:34:09.914Z,94881.24
2018-07-01T09:36:38.698Z,94871.91
2018-07-01T09:39:09.672Z,94868.50
2018-07-01T09:41:38.455Z,94864.52
2018-07-01T09:44:07.352Z,94865.61
2018-07-01T09:46:36.761Z,94878.67
2018-07-01T09:49:05.636Z,94875.17
2018-07-01T09:51:34.714Z,94876.00
2018-07-01T09:54:03.642Z,94864.01
2018-07-01T09:56:32.432Z,94877.61
2018-07-01T09:59:01.204Z,94864.79
2018-07-01T10:01:31.025Z,94861.86
2018-07-01T10:03:59.805Z,94861.34
2018-07-01T10:06:28.987Z,94849.88
2018-07-01T10:08:58.488Z,94849.04
2018-07-01T10:11:27.582Z,94855.75
2018-07-01T10:13:56.475Z,94854.13
2018-07-01T10:16:25.228Z,94856.28
2018-07-01T10:18:54.149Z,94855.48
2018-07-01T10:21:23.013Z,94857.33
2018-07-01T10:23:51.729Z,94851.99
2018-07-01T10:26:20.477Z,94853.88
2018-07-01T10:29:10.339Z,94861.89
2018-07-01T10:31:39.740Z,94853.06
2018-07-01T10:34:10.057Z,94874.69
2018-07-01T10:36:38.881Z,94863.48
2018-07-01T10:39:11.934Z,94853.03
2018-07-01T10:41:40.767Z,94862.66
2018-07-01T10:44:09.897Z,94849.02
2018-07-01T10:46:39.018Z,94876.27
2018-07-01T10:49:07.836Z,94857.58
2018-07-01T10:51:36.697Z,94858.13
2018-07-01T10:54:05.858Z,94848.53
2018-07-01T10:56:34.657Z,94848.00
2018-07-01T10:59:03.386Z,94858.41
2018-07-01T11:01:32.133Z,94844.53
2018-07-01T11:04:01.199Z,94855.19
2018-07-01T11:06:30.319Z,94858.14
2018-07-01T11:08:59.121Z,94858.37
2018-07-01T11:11:27.833Z,94859.97
2018-07-01T11:13:56.610Z,94858.88
2018-07-01T11:16:25.752Z,94858.05
2018-07-01T11:18:54.538Z,94865.23
2018-07-01T11:21:23.283Z,94859.12
2018-07-01T11:23:52.106Z,94856.72
2018-07-01T11:26:20.852Z,94861.79
2018-07-01T11:28:49.656Z,94846.80
2018-07-01T11:31:18.437Z,94863.06
2018-07-01T11:33:47.162Z,94851.30
2018-07-01T11:36:16.026Z,94863.02
2018-07-01T11:38:44.809Z,94845.95
2018-07-01T11:41:13.530Z,94842.97
2018-07-01T11:43:42.279Z,94851.78
2018-07-01T11:46:11.076Z,94842.11
2018-07-01T11:48:40.255Z,94853.25
2018-07-01T11:51:09.011Z,94851.87
2018-07-01T11:53:37.745Z,94847.43
2018-07-01T11:56:06.957Z,94857.63
2018-07-01T11:58:35.683Z,94847.43
2018-07-01T12:01:04.464Z,94847.91
2018-07-01T12:03:33.179Z,94860.97
2018-07-01T12:06:01.926Z,94856.42
2018-07-01T12:08:30.645Z,94847.86
2018-07-01T12:10:59.396Z,94847.32
2018-07-01T12:13:28.154Z,94851.02
2018-07-01T12:15:56.879Z,94838.17
2018-07-01T12:18:25.584Z,94852.29
2018-07-01T12:20:54.288Z,94842.39
2018-07-01T12:23:23.048Z,94834.40
2018-07-01T12:25:52.023Z,94851.80
2018-07-01T12:28:20.746Z,94832.28
2018-07-01T12:30:49.562Z,94830.61
2018-07-01T12:33:18.292Z,94841.54
2018-07-01T12:35:47.016Z,94824.39
2018-07-01T12:38:16.156Z,94818.98
2018-07-01T12:40:44.888Z,94817.31
2018-07-01T12:43:13.696Z,94818.09
2018-07-01T12:45:42.515Z,94826.66
2018-07-01T12:48:11.267Z,94828.80
2018-07-01T12:50:40.082Z,94824.81
2018-07-01T12:53:09.292Z,94841.93
2018-07-01T12:55:38.066Z,94826.69
2018-07-01T12:58:07.268Z,94826.94
2018-07-01T13:00:35.974Z,94839.20
2018-07-01T13:03:04.750Z,94854.46
2018-07-01T13:05:33.502Z,94840.26
2018-07-01T13:08:02.332Z,94829.73
2018-07-01T13:10:31.081Z,94839.09
2018-07-01T13:12:59.821Z,94842.87
2018-07-01T13:15:28.582Z,94841.23
2018-07-01T13:17:57.713Z,94837.22
2018-07-01T13:20:26.820Z,94826.06
2018-07-01T13:22:55.588Z,94836.37
2018-07-01T13:25:24.308Z,94821.17
2018-07-01T13:27:53.020Z,94835.64
2018-07-01T13:30:21.758Z,94831.97
2018-07-01T13:32:56.900Z,94834.23
2018-07-01T13:35:25.632Z,94838.14
2018-07-01T13:37:54.958Z,94826.23
2018-07-01T13:40:23.721Z,94836.42
2018-07-01T13:42:52.469Z,94833.30
2018-07-01T13:45:21.478Z,94841.06
2018-07-01T13:47:50.226Z,94832.89
2018-07-01T13:50:18.938Z,94837.23
2018-07-01T13:52:47.669Z,94854.09
2018-07-01T13:55:16.462Z,94838.12
2018-07-01T13:57:45.225Z,94843.00
2018-07-01T14:00:14.055Z,94835.52
2018-07-01T14:02:43.208Z,94842.48
2018-07-01T14:05:11.887Z,94846.28
2018-07-01T14:07:40.652Z,94850.36
2018-07-01T14:10:09.474Z,94856.52
2018-07-01T14:12:38.269Z,94846.34
2018-07-01T14:15:07.090Z,94853.19
2018-07-01T14:17:35.897Z,94870.04
2018-07-01T14:20:05.332Z,94860.81
2018-07-01T14:22:34.035Z,94858.16
2018-07-01T14:25:02.803Z,94868.55
2018-07-01T14:27:31.576Z,94864.02
2018-07-01T14:30:00.338Z,94868.80
2018-07-01T14:32:29.061Z,94867.45
2018-07-01T14:34:57.807Z,94866.43
2018-07-01T14:37:26.621Z,94878.21
2018-07-01T14:39:55.359Z,94876.63
2018-07-01T14:42:24.135Z,94870.97
2018-07-01T14:44:53.156Z,94858.89
2018-07-01T14:47:21.891Z,94861.30
2018-07-01T14:49:50.653Z,94854.25
2018-07-01T14:52:19.497Z,94861.69
2018-07-01T14:54:48.400Z,94859.00
2018-07-01T14:57:17.344Z,94850.95
2018-07-01T14:59:46.113Z,94845.81
2018-07-01T15:02:14.857Z,94845.27
2018-07-01T15:04:43.595Z,94841.45
2018-07-01T15:07:12.388Z,94845.25
2018-07-01T15:09:41.139Z,94845.02
2018-07-01T15:12:09.900Z,94842.31
2018-07-01T15:14:39.235Z,94845.92
2018-07-01T15:17:08.316Z,94840.29
2018-07-01T15:19:37.128Z,94833.13
2018-07-01T15:22:05.947Z,94837.13
2018-07-01T15:24:34.780Z,94829.83
2018-07-01T15:27:03.922Z,94827.97
2018-07-01T15:29:32.605Z,94822.48
2018-07-01T15:32:01.345Z,94819.23
2018-07-01T15:34:30.445Z,94812.13
2018-07-01T15:36:59.236Z,94814.55
2018-07-01T15:39:27.928Z,94825.25
2018-07-01T15:41:56.649Z,94825.55
2018-07-01T15:44:25.401Z,94830.41
2018-07-01T15:46:54.140Z,94832.44
2018-07-01T15:49:22.865Z,94837.52
2018-07-01T15:51:51.706Z,94838.54
2018-07-01T15:54:20.426Z,94837.39
2018-07-01T15:56:49.184Z,94838.64
2018-07-01T15:59:18.206Z,94834.82
2018-07-01T16:01:46.948Z,94828.05
2018-07-01T16:04:15.769Z,94822.49
2018-07-01T16:06:44.542Z,94828.22
2018-07-01T16:09:13.393Z,94830.14
2018-07-01T16:11:42.284Z,94832.58
2018-07-01T16:14:11.158Z,94830.05
2018-07-01T16:16:39.893Z,94834.14
2018-07-01T16:19:08.759Z,94838.44
2018-07-01T16:21:37.527Z,94841.66
2018-07-01T16:24:06.691Z,94844.05
2018-07-01T16:26:41.011Z,94843.23
2018-07-01T16:29:10.241Z,94835.77
2018-07-01T16:31:39.323Z,94844.65
2018-07-01T16:34:08.125Z,94841.80
2018-07-01T16:36:36.886Z,94838.59
2018-07-01T16:39:09.459Z,94841.80
2018-07-01T16:41:38.162Z,94841.81
2018-07-01T16:44:07.988Z,94846.94
2018-07-01T16:46:37.645Z,94850.14
2018-07-01T16:49:06.435Z,94852.02
2018-07-01T16:51:35.254Z,94851.52
2018-07-01T16:54:04.385Z,94853.40
2018-07-01T16:56:33.114Z,94858.22
2018-07-01T16:59:01.932Z,94851.58
2018-07-01T17:01:30.662Z,94854.25
2018-07-01T17:03:59.350Z,94847.86
2018-07-01T17:06:28.095Z,94852.97
2018-07-01T17:08:56.811Z,94849.26
2018-07-01T17:11:25.623Z,94851.13
2018-07-01T17:13:54.666Z,94843.09
2018-07-01T17:16:23.460Z,94839.64
2018-07-01T17:18:52.212Z,94847.13
2018-07-01T17:21:20.931Z,94847.12
2018-07-01T17:23:49.662Z,94848.22
2018-07-01T17:26:18.406Z,94842.63
2018-07-01T17:28:47.629Z,94845.58
2018-07-01T17:31:21.519Z,94853.05
2018-07-01T17:33:50.267Z,94849.61
2018-07-01T17:36:19.086Z,94854.14
2018-07-01T17:38:47.811Z,94860.28
2018-07-01T17:41:16.546Z,94859.45
2018-07-01T17:43:45.319Z,94869.06
2018-07-01T17:46:14.081Z,94864.53
2018-07-01T17:48:42.809Z,94868.27
2018-07-01T17:51:11.601Z,94865.34
2018-07-01T17:54:01.429Z,94874.16
2018-07-01T17:56:30.225Z,94883.23
2018-07-01T17:58:59.881Z,94890.15
2018-07-01T18:01:28.634Z,94883.73
2018-07-01T18:03:57.384Z,94883.47
2018-07-01T18:06:26.239Z,94887.44
2018-07-01T18:08:55.018Z,94898.91
2018-07-01T18:11:23.802Z,94896.20
2018-07-01T18:13:52.556Z,94892.42
2018-07-01T18:16:21.354Z,94894.30
2018-07-01T18:18:50.125Z,94896.38
2018-07-01T18:21:20.254Z,94903.28
2018-07-01T18:24:19.491Z,94900.83
2018-07-01T18:26:16.970Z,94908.01
2018-07-01T18:28:55.767Z,94911.71
2018-07-01T18:31:14.869Z,94914.95
2018-07-01T18:33:43.588Z,94918.96
2018-07-01T18:36:12.393Z,94924.82
2018-07-01T18:38:41.333Z,94935.68
2018-07-01T18:41:10.092Z,94939.84
2018-07-01T18:43:38.916Z,94952.09
2018-07-01T18:46:07.795Z,94965.87
2018-07-01T18:48:36.797Z,94972.95
2018-07-01T18:51:05.607Z,94971.34
2018-07-01T18:53:34.308Z,94981.92
2018-07-01T18:56:03.105Z,94990.84
2018-07-01T18:58:38.286Z,94990.69
2018-07-01T19:01:07.210Z,94989.17
2018-07-01T19:03:35.972Z,94984.30
2018-07-01T19:06:05.262Z,94979.51
2018-07-01T19:08:34.045Z,94974.95
2018-07-01T19:11:03.245Z,94967.19
2018-07-01T19:13:32.418Z,94968.73
2018-07-01T19:16:01.845Z,94967.94
2018-07-01T19:18:30.905Z,94968.98
2018-07-01T19:20:59.822Z,94965.33
2018-07-01T19:23:29.035Z,94971.73
2018-07-01T19:25:58.034Z,94981.94
2018-07-01T19:28:27.393Z,94986.04
2018-07-01T19:30:56.173Z,94985.63
2018-07-01T19:33:24.913Z,94999.56
2018-07-01T19:35:53.582Z,95015.84
2018-07-01T19:38:22.373Z,95023.19
2018-07-01T19:40:51.153Z,95009.52
2018-07-01T19:43:20.012Z,95009.80
2018-07-01T19:45:48.913Z,95008.64
2018-07-01T19:48:17.800Z,95002.31
2018-07-01T19:50:46.709Z,94993.31
2018-07-01T19:53:15.482Z,94993.36
2018-07-01T19:55:44.254Z,94993.17
2018-07-01T19:58:13.697Z,94995.61
2018-07-01T20:00:42.533Z,94993.52
2018-07-01T20:03:11.622Z,94993.58
2018-07-01T20:05:40.426Z,94994.11
2018-07-01T20:08:09.227Z,94995.06
2018-07-01T20:10:37.980Z,94991.95
2018-07-01T20:13:07.112Z,94985.52
2018-07-01T20:15:36.073Z,94985.30
2018-07-01T20:18:05.221Z,94984.05
2018-07-01T20:20:33.968Z,94986.04
2018-07-01T20:23:02.761Z,94988.19
2018-07-01T20:25:31.597Z,94981.63
2018-07-01T20:28:00.447Z,94987.80
2018-07-01T20:30:29.273Z,94999.22
2018-07-01T20:32:58.303Z,95003.73
2018-07-01T20:35:28.737Z,95003.21
2018-07-01T20:37:57.473Z,95002.94
2018-07-01T20:40:26.528Z,94992.55
2018-07-01T20:42:55.281Z,94990.65
2018-07-01T20:45:24.117Z,95002.27
2018-07-01T20:47:59.146Z,95000.70
2018-07-01T20:50:28.004Z,94990.69
2018-07-01T20:52:57.302Z,94997.57
2018-07-01T20:55:29.455Z,94997.89
2018-07-01T20:57:58.251Z,94996.58
2018-07-01T21:00:27.077Z,94989.14
2018-07-01T21:02:55.825Z,94983.81
2018-07-01T21:05:24.670Z,94978.69
2018-07-01T21:07:53.590Z,94984.29
2018-07-01T21:10:22.326Z,94986.42
2018-07-01T21:12:51.123Z,94984.62
2018-07-01T21:15:19.868Z,94983.72
2018-07-01T21:17:48.635Z,94985.52
2018-07-01T21:20:17.562Z,94985.28
2018-07-01T21:22:46.790Z,94985.00
2018-07-01T21:25:15.536Z,94988.23
2018-07-01T21:27:44.341Z,94994.91
2018-07-01T21:30:13.293Z,94988.84
2018-07-01T21:32:42.075Z,94988.59
2018-07-01T21:35:11.284Z,94986.20
2018-07-01T21:37:40.209Z,94979.55
2018-07-01T21:40:09.141Z,94975.72
2018-07-01T21:42:38.087Z,94974.66
2018-07-01T21:45:07.714Z,94986.04
2018-07-01T21:47:36.714Z,94987.84
2018-07-01T21:50:06.204Z,94988.94
2018-07-01T21:52:35.150Z,94987.95
2018-07-01T21:55:04.182Z,94992.84
2018-07-01T21:57:32.978Z,94991.83
2018-07-01T22:00:01.950Z,94997.34
2018-07-01T22:02:30.974Z,94999.23
2018-07-01T22:04:59.722Z,94998.67
2018-07-01T22:07:28.662Z,95005.31
2018-07-01T22:09:57.401Z,94997.85
2018-07-01T22:12:37.517Z,95003.73
2018-07-01T22:16:16.273Z,95002.31
2018-07-01T22:18:45.247Z,94999.08
2018-07-01T22:21:14.234Z,94998.05
2018-07-01T22:23:43.207Z,94990.65
2018-07-01T22:26:12.117Z,94994.34
2018-07-01T22:28:41.183Z,95012.12
2018-07-01T22:31:10.171Z,95023.59
2018-07-01T22:33:39.094Z,95027.86
2018-07-01T22:36:08.371Z,95008.36
2018-07-01T22:38:37.327Z,94997.70
2018-07-01T22:41:06.243Z,95003.64
2018-07-01T22:43:35.194Z,95030.95
2018-07-01T22:46:04.152Z,95019.05
2018-07-01T22:48:33.149Z,95002.16
2018-07-01T22:51:02.069Z,95009.05
2018-07-01T22:53:30.987Z,95017.89
2018-07-01T22:55:59.729Z,95017.27
2018-07-01T22:58:28.503Z,95019.97
2018-07-01T23:00:57.482Z,95021.94
2018-07-01T23:03:26.490Z,95023.47
2018-07-01T23:05:55.406Z,95027.77
2018-07-01T23:08:24.406Z,95042.09
2018-07-01T23:10:53.358Z,95068.96
2018-07-01T23:13:22.145Z,95089.10
2018-07-01T23:15:51.069Z,95114.74
2018-07-01T23:18:20.006Z,95142.62
2018-07-01T23:20:48.781Z,95164.19
2018-07-01T23:23:17.774Z,95147.59
2018-07-01T23:25:46.762Z,95152.60
2018-07-01T23:28:15.715Z,95134.03
2018-07-01T23:30:44.657Z,95115.53
2018-07-01T23:33:13.634Z,95101.58
2018-07-01T23:35:42.574Z,95084.11
2018-07-01T23:38:11.493Z,95093.79
2018-07-01T23:40:40.454Z,95085.32
2018-07-01T23:43:09.353Z,95086.42
2018-07-01T23:45:38.282Z,95094.75
2018-07-01T23:48:07.374Z,95090.11
2018-07-01T23:50:36.181Z,95089.98
2018-07-01T23:53:05.157Z,95101.59
2018-07-01T23:55:34.065Z,95106.86
2018-07-01T23:58:03.036Z,95101.45
